createdAt,value
2017-12-16T00:01:20.759Z,4.70
2017-12-16T00:03:47.274Z,3.93
2017-12-16T00:06:13.728Z,5.67
2017-12-16T00:08:40.093Z,3.33
2017-12-16T00:11:06.857Z,4.47
2017-12-16T00:13:33.294Z,4.40
2017-12-16T00:15:59.676Z,4.53
2017-12-16T00:18:26.133Z,3.67
2017-12-16T00:20:52.645Z,3.50
2017-12-16T00:23:19.045Z,4.20
2017-12-16T00:25:45.657Z,3.53
2017-12-16T00:28:12.137Z,3.30
2017-12-16T00:30:38.666Z,4.27
2017-12-16T00:33:05.112Z,4.77
2017-12-16T00:35:31.578Z,3.97
2017-12-16T00:37:58.048Z,4.43
2017-12-16T00:40:24.448Z,7.37
2017-12-16T00:42:50.901Z,6.67
2017-12-16T00:45:17.422Z,6.77
2017-12-16T00:47:44.186Z,3.50
2017-12-16T00:50:10.621Z,4.60
2017-12-16T00:52:37.098Z,3.70
2017-12-16T00:55:03.555Z,3.93
2017-12-16T00:57:30.042Z,2.87
2017-12-16T00:59:56.588Z,5.53
2017-12-16T01:02:23.014Z,4.23
2017-12-16T01:04:49.444Z,6.03
2017-12-16T01:07:15.893Z,3.77
2017-12-16T01:09:42.317Z,7.47
2017-12-16T01:12:08.850Z,4.97
2017-12-16T01:14:35.250Z,4.03
2017-12-16T01:17:01.643Z,5.10
2017-12-16T01:19:28.174Z,3.63
2017-12-16T01:21:54.585Z,3.27
2017-12-16T01:24:20.979Z,5.13
2017-12-16T01:26:47.395Z,3.63
2017-12-16T01:29:13.837Z,5.27
2017-12-16T01:31:40.235Z,6.47
2017-12-16T01:34:19.107Z,4.97
2017-12-16T01:50:14.817Z,3.93
2017-12-16T01:52:41.233Z,5.43
2017-12-16T01:55:07.805Z,5.43
2017-12-16T01:57:34.289Z,4.77
2017-12-16T02:00:00.729Z,6.20
2017-12-16T02:02:27.393Z,3.10
2017-12-16T02:04:54.004Z,6.03
2017-12-16T02:07:20.501Z,4.80
2017-12-16T02:09:46.939Z,3.67
2017-12-16T02:12:13.413Z,6.90
2017-12-16T02:14:39.916Z,4.83
2017-12-16T02:17:06.355Z,5.50
2017-12-16T02:19:32.818Z,6.63
2017-12-16T02:21:59.289Z,4.00
2017-12-16T02:24:25.777Z,5.80
2017-12-16T02:26:52.257Z,4.87
2017-12-16T02:29:18.706Z,4.60
2017-12-16T02:31:45.137Z,7.30
2017-12-16T02:34:11.717Z,4.53
2017-12-16T02:36:38.148Z,6.33
2017-12-16T02:39:04.617Z,7.20
2017-12-16T02:41:31.119Z,8.00
2017-12-16T02:43:57.650Z,8.00
2017-12-16T02:46:24.114Z,7.17
2017-12-16T02:48:50.669Z,5.27
2017-12-16T02:51:17.166Z,6.37
2017-12-16T02:53:43.604Z,7.67
2017-12-16T02:56:10.130Z,5.67
2017-12-16T02:58:36.626Z,5.33
2017-12-16T03:01:03.135Z,5.60
2017-12-16T03:03:29.701Z,4.97
2017-12-16T03:05:56.261Z,6.37
2017-12-16T03:08:22.731Z,5.47
2017-12-16T03:10:49.285Z,9.90
2017-12-16T03:13:15.838Z,5.87
2017-12-16T03:15:43.530Z,6.80
2017-12-16T03:18:09.977Z,8.00
2017-12-16T03:20:36.546Z,7.40
2017-12-16T03:23:03.017Z,6.57
2017-12-16T03:25:29.517Z,7.27
2017-12-16T03:27:56.002Z,4.90
2017-12-16T03:30:22.495Z,5.30
2017-12-16T03:32:49.009Z,5.27
2017-12-16T03:35:15.522Z,8.27
2017-12-16T03:37:41.978Z,5.17
2017-12-16T03:40:08.682Z,4.57
2017-12-16T03:42:35.232Z,7.17
2017-12-16T03:45:01.833Z,5.37
2017-12-16T03:47:28.409Z,4.90
2017-12-16T03:49:54.917Z,7.70
2017-12-16T03:52:21.577Z,6.97
2017-12-16T03:54:48.197Z,8.43
2017-12-16T03:57:14.834Z,5.00
2017-12-16T03:59:41.350Z,6.60
2017-12-16T04:02:07.833Z,6.57
2017-12-16T04:04:34.280Z,5.70
2017-12-16T04:07:00.725Z,5.43
2017-12-16T04:09:27.232Z,6.03
2017-12-16T04:11:53.678Z,8.80
2017-12-16T04:14:20.139Z,6.80
2017-12-16T04:16:46.629Z,7.13
2017-12-16T04:19:13.122Z,5.93
2017-12-16T04:21:39.789Z,4.63
2017-12-16T04:24:06.369Z,6.23
2017-12-16T04:26:33.058Z,6.27
2017-12-16T04:28:59.546Z,6.83
2017-12-16T04:31:26.071Z,8.63
2017-12-16T04:33:52.868Z,8.80
2017-12-16T04:36:19.435Z,6.10
2017-12-16T04:38:45.953Z,6.03
2017-12-16T04:41:12.501Z,5.70
2017-12-16T04:43:39.142Z,5.93
2017-12-16T04:46:05.645Z,6.93
2017-12-16T04:48:32.187Z,5.93
2017-12-16T04:50:58.874Z,7.33
2017-12-16T04:53:25.358Z,7.43
2017-12-16T04:55:51.949Z,6.70
2017-12-16T04:58:18.413Z,6.17
2017-12-16T05:00:45.138Z,6.67
2017-12-16T05:03:11.709Z,6.37
2017-12-16T05:05:38.318Z,8.47
2017-12-16T05:08:05.064Z,7.63
2017-12-16T05:10:31.522Z,8.93
2017-12-16T05:12:57.994Z,7.80
2017-12-16T05:15:24.517Z,8.37
2017-12-16T05:17:51.993Z,7.33
2017-12-16T05:20:18.431Z,5.00
2017-12-16T05:22:45.093Z,8.77
2017-12-16T05:25:11.680Z,9.60
2017-12-16T05:27:38.145Z,10.20
2017-12-16T05:30:04.650Z,12.20
2017-12-16T05:32:31.084Z,9.93
2017-12-16T05:34:57.558Z,9.43
2017-12-16T05:37:24.162Z,10.40
2017-12-16T05:39:51.224Z,11.83
2017-12-16T05:42:17.677Z,10.57
2017-12-16T05:44:44.125Z,8.83
2017-12-16T05:47:10.561Z,15.63
2017-12-16T05:49:37.032Z,8.80
2017-12-16T05:52:03.554Z,10.83
2017-12-16T05:54:30.037Z,10.40
2017-12-16T05:56:56.529Z,7.43
2017-12-16T05:59:23.037Z,12.70
2017-12-16T06:01:49.494Z,9.80
2017-12-16T06:04:16.071Z,11.63
2017-12-16T06:06:42.565Z,9.73
2017-12-16T06:09:09.038Z,9.00
2017-12-16T06:11:36.233Z,8.43
2017-12-16T06:14:03.821Z,10.07
2017-12-16T06:16:30.424Z,10.70
2017-12-16T06:18:56.897Z,10.03
2017-12-16T06:21:23.426Z,9.23
2017-12-16T06:23:49.925Z,11.43
2017-12-16T06:26:16.642Z,14.67
2017-12-16T06:28:43.201Z,10.07
2017-12-16T06:31:09.653Z,8.70
2017-12-16T06:33:36.065Z,12.10
2017-12-16T06:36:02.668Z,10.03
2017-12-16T06:38:29.185Z,16.97
2017-12-16T06:40:55.866Z,10.10
2017-12-16T06:43:22.409Z,12.87
2017-12-16T06:45:48.906Z,14.20
2017-12-16T06:48:15.393Z,11.27
2017-12-16T06:50:42.069Z,10.57
2017-12-16T06:53:08.562Z,12.10
2017-12-16T06:55:35.052Z,15.73
2017-12-16T06:58:02.214Z,12.07
2017-12-16T07:00:28.654Z,13.87
2017-12-16T07:02:55.205Z,18.10
2017-12-16T07:05:21.749Z,21.03
2017-12-16T07:07:48.257Z,15.83
2017-12-16T07:10:14.761Z,15.47
2017-12-16T07:12:41.229Z,12.53
2017-12-16T07:15:07.864Z,14.80
2017-12-16T07:17:34.765Z,12.03
2017-12-16T07:20:01.978Z,14.30
2017-12-16T07:22:28.467Z,11.80
2017-12-16T07:24:54.987Z,11.43
2017-12-16T07:27:21.776Z,7.70
2017-12-16T07:29:48.455Z,13.27
2017-12-16T07:32:15.021Z,11.47
2017-12-16T07:34:41.694Z,15.63
2017-12-16T07:37:08.126Z,12.07
2017-12-16T07:39:34.564Z,13.10
2017-12-16T07:42:01.058Z,14.30
2017-12-16T07:44:27.496Z,17.70
2017-12-16T07:46:53.989Z,10.10
2017-12-16T07:49:20.441Z,10.07
2017-12-16T07:51:46.875Z,16.23
2017-12-16T07:54:13.310Z,13.77
2017-12-16T07:56:39.723Z,19.07
2017-12-16T07:59:06.877Z,14.27
2017-12-16T08:01:34.091Z,8.80
2017-12-16T08:04:01.376Z,10.97
2017-12-16T08:06:27.854Z,12.83
2017-12-16T08:08:54.433Z,11.87
2017-12-16T08:11:20.935Z,17.23
2017-12-16T08:13:47.366Z,12.53
2017-12-16T08:16:13.764Z,11.90
2017-12-16T08:18:40.250Z,13.93
2017-12-16T08:21:06.609Z,12.17
2017-12-16T08:23:33.057Z,17.30
2017-12-16T08:26:01.817Z,13.73
2017-12-16T08:28:28.181Z,20.87
2017-12-16T08:30:54.621Z,16.10
2017-12-16T08:33:21.100Z,24.03
2017-12-16T08:35:47.511Z,12.73
2017-12-16T08:38:13.881Z,11.80
2017-12-16T08:40:40.325Z,13.97
2017-12-16T08:43:06.763Z,11.33
2017-12-16T08:45:33.320Z,9.97
2017-12-16T08:47:59.785Z,10.13
2017-12-16T08:50:26.139Z,18.47
2017-12-16T08:52:52.551Z,10.43
2017-12-16T08:55:19.082Z,11.00
2017-12-16T08:57:45.926Z,8.70
2017-12-16T09:00:14.377Z,9.37
2017-12-16T09:02:40.869Z,8.87
2017-12-16T09:05:07.288Z,10.40
2017-12-16T09:07:33.860Z,5.90
2017-12-16T09:10:00.363Z,14.03
2017-12-16T09:12:26.758Z,8.03
2017-12-16T09:14:53.149Z,8.93
2017-12-16T09:17:19.751Z,8.87
2017-12-16T09:19:46.153Z,10.67
2017-12-16T09:22:12.654Z,9.90
2017-12-16T09:24:39.065Z,12.47
2017-12-16T09:27:05.442Z,11.13
2017-12-16T09:29:31.885Z,7.23
2017-12-16T09:31:58.320Z,8.50
2017-12-16T09:34:24.679Z,10.50
2017-12-16T09:36:51.258Z,12.40
2017-12-16T09:39:17.666Z,9.10
2017-12-16T09:41:43.996Z,10.30
2017-12-16T09:44:10.361Z,7.87
2017-12-16T09:46:36.770Z,10.37
2017-12-16T09:49:03.145Z,7.83
2017-12-16T09:51:29.512Z,8.70
2017-12-16T09:53:56.370Z,5.30
2017-12-16T09:56:22.891Z,8.23
2017-12-16T09:58:49.261Z,7.03
2017-12-16T10:01:16.464Z,8.17
2017-12-16T10:03:43.062Z,12.30
2017-12-16T10:06:09.538Z,7.83
2017-12-16T10:08:36.107Z,7.20
2017-12-16T10:11:02.580Z,6.63
2017-12-16T10:13:29.038Z,7.70
2017-12-16T10:15:55.585Z,6.87
2017-12-16T10:18:22.134Z,9.33
2017-12-16T10:20:56.544Z,6.70
2017-12-16T10:23:22.990Z,7.87
2017-12-16T10:25:49.505Z,11.43
2017-12-16T10:28:15.973Z,11.00
2017-12-16T10:30:42.365Z,9.40
2017-12-16T10:33:08.833Z,7.73
2017-12-16T10:35:35.838Z,7.77
2017-12-16T10:38:02.442Z,8.53
2017-12-16T10:40:28.850Z,4.43
2017-12-16T10:42:55.333Z,8.03
2017-12-16T10:45:21.746Z,8.10
2017-12-16T10:47:48.165Z,7.50
2017-12-16T10:50:14.630Z,5.77
2017-12-16T10:52:41.045Z,7.67
2017-12-16T10:55:07.474Z,8.23
2017-12-16T10:57:33.857Z,11.73
2017-12-16T11:00:00.318Z,10.73
2017-12-16T11:02:26.717Z,11.00
2017-12-16T11:04:53.156Z,3.10
2017-12-16T11:07:19.785Z,8.77
2017-12-16T11:09:46.166Z,5.97
2017-12-16T11:12:14.368Z,5.43
2017-12-16T11:14:40.757Z,7.00
2017-12-16T11:17:07.365Z,7.03
2017-12-16T11:19:33.780Z,5.87
2017-12-16T11:22:00.218Z,8.93
2017-12-16T11:24:26.614Z,7.23
2017-12-16T11:26:53.057Z,10.37
2017-12-16T11:29:19.480Z,6.73
2017-12-16T11:31:45.884Z,6.57
2017-12-16T11:34:12.298Z,9.90
2017-12-16T11:36:38.682Z,10.50
2017-12-16T11:39:05.041Z,8.57
2017-12-16T11:41:31.425Z,10.23
2017-12-16T11:43:57.792Z,11.70
2017-12-16T11:46:24.138Z,12.03
2017-12-16T11:48:50.553Z,10.07
2017-12-16T11:51:17.200Z,7.70
2017-12-16T11:53:43.565Z,9.90
2017-12-16T11:56:09.994Z,11.40
2017-12-16T11:58:36.400Z,7.83
2017-12-16T12:01:02.791Z,13.97
2017-12-16T12:03:29.222Z,14.10
2017-12-16T12:05:55.650Z,6.57
2017-12-16T12:08:22.068Z,9.33
2017-12-16T12:10:48.570Z,12.77
2017-12-16T12:13:14.925Z,13.67
2017-12-16T12:15:41.333Z,10.63
2017-12-16T12:18:07.769Z,16.00
2017-12-16T12:20:34.177Z,17.10
2017-12-16T12:23:00.682Z,9.73
2017-12-16T12:25:27.114Z,11.97
2017-12-16T12:27:53.477Z,13.20
2017-12-16T12:30:19.885Z,11.97
2017-12-16T12:32:47.266Z,15.93
2017-12-16T12:35:13.701Z,26.97
2017-12-16T12:37:40.073Z,17.67
2017-12-16T12:40:06.486Z,10.33
2017-12-16T12:42:32.852Z,14.33
2017-12-16T12:44:59.225Z,12.77
2017-12-16T12:47:25.729Z,11.43
2017-12-16T12:49:52.144Z,12.47
2017-12-16T12:52:18.482Z,17.33
2017-12-16T12:54:45.001Z,12.70
2017-12-16T12:57:11.345Z,14.83
2017-12-16T12:59:37.729Z,16.77
2017-12-16T13:02:04.201Z,15.67
2017-12-16T13:04:30.534Z,12.20
2017-12-16T13:06:57.185Z,11.00
2017-12-16T13:09:23.586Z,14.37
2017-12-16T13:11:49.949Z,12.90
2017-12-16T13:14:16.293Z,10.90
2017-12-16T13:16:42.694Z,15.57
2017-12-16T13:19:09.041Z,13.20
2017-12-16T13:21:35.408Z,14.70
2017-12-16T13:24:01.845Z,18.40
2017-12-16T13:26:28.267Z,14.80
2017-12-16T13:28:54.674Z,13.47
2017-12-16T13:31:21.054Z,15.93
2017-12-16T13:33:47.482Z,12.73
2017-12-16T13:36:13.889Z,11.33
2017-12-16T13:38:40.282Z,10.97
2017-12-16T13:41:06.650Z,15.50
2017-12-16T13:43:33.010Z,17.67
2017-12-16T13:45:59.413Z,14.03
2017-12-16T13:48:25.821Z,15.53
2017-12-16T13:50:52.215Z,16.10
2017-12-16T13:53:18.607Z,17.67
2017-12-16T13:55:44.953Z,15.97
2017-12-16T13:58:11.304Z,18.13
2017-12-16T14:00:37.747Z,14.53
2017-12-16T14:03:04.352Z,15.53
2017-12-16T14:05:30.719Z,18.77
2017-12-16T14:07:57.109Z,15.67
2017-12-16T14:10:23.473Z,16.27
2017-12-16T14:12:49.826Z,12.07
2017-12-16T14:15:16.238Z,13.87
2017-12-16T14:17:42.921Z,15.23
2017-12-16T14:20:09.276Z,13.63
2017-12-16T14:22:35.687Z,12.90
2017-12-16T14:25:03.764Z,15.23
2017-12-16T14:27:30.316Z,15.27
2017-12-16T14:29:59.074Z,19.00
2017-12-16T14:32:25.481Z,19.30
2017-12-16T14:34:51.865Z,13.73
2017-12-16T14:37:18.497Z,17.80
2017-12-16T14:39:44.979Z,20.20
2017-12-16T14:42:11.464Z,12.67
2017-12-16T14:44:37.886Z,14.47
2017-12-16T14:47:04.278Z,17.33
2017-12-16T14:49:30.651Z,15.40
2017-12-16T14:51:57.086Z,15.93
2017-12-16T14:54:23.489Z,14.33
2017-12-16T14:56:49.898Z,19.07
2017-12-16T14:59:16.294Z,14.77
2017-12-16T15:01:42.651Z,21.30
2017-12-16T15:04:09.045Z,21.17
2017-12-16T15:06:35.438Z,16.37
2017-12-16T15:09:01.814Z,19.37
2017-12-16T15:11:28.215Z,17.27
2017-12-16T15:13:54.600Z,19.57
2017-12-16T15:16:20.957Z,16.20
2017-12-16T15:18:47.330Z,16.53
2017-12-16T15:21:13.881Z,16.30
2017-12-16T15:23:40.301Z,19.13
2017-12-16T15:26:06.697Z,21.57
2017-12-16T15:28:33.106Z,19.60
2017-12-16T15:30:59.465Z,17.07
2017-12-16T15:33:25.836Z,16.67
2017-12-16T15:35:52.225Z,17.37
2017-12-16T15:38:18.577Z,16.73
2017-12-16T15:40:45.025Z,17.33
2017-12-16T15:43:11.575Z,16.07
2017-12-16T15:45:38.060Z,21.20
2017-12-16T15:48:04.474Z,19.60
2017-12-16T15:50:31.030Z,19.00
2017-12-16T15:52:57.437Z,17.90
2017-12-16T15:55:23.797Z,23.73
2017-12-16T15:57:50.205Z,15.43
2017-12-16T16:00:16.627Z,20.00
2017-12-16T16:02:43.153Z,16.90
2017-12-16T16:05:09.592Z,17.17
2017-12-16T16:07:35.974Z,18.10
2017-12-16T16:10:02.393Z,17.17
2017-12-16T16:12:28.880Z,20.40
2017-12-16T16:14:55.338Z,21.07
2017-12-16T16:17:21.733Z,19.77
2017-12-16T16:19:48.154Z,12.80
2017-12-16T16:22:14.687Z,18.20
2017-12-16T16:24:41.106Z,20.43
2017-12-16T16:27:07.554Z,22.17
2017-12-16T16:29:33.962Z,20.90
2017-12-16T16:32:00.333Z,23.57
2017-12-16T16:34:26.776Z,23.57
2017-12-16T16:36:53.142Z,16.53
2017-12-16T16:39:19.537Z,12.53
2017-12-16T16:41:46.049Z,14.50
2017-12-16T16:44:12.466Z,20.47
2017-12-16T16:46:38.829Z,17.30
2017-12-16T16:49:05.238Z,14.50
2017-12-16T16:51:31.653Z,10.43
2017-12-16T16:53:58.069Z,12.27
2017-12-16T16:56:24.497Z,15.90
2017-12-16T16:58:50.902Z,19.03
2017-12-16T17:01:17.337Z,20.23
2017-12-16T17:03:44.465Z,16.57
2017-12-16T17:06:10.897Z,15.70
2017-12-16T17:08:37.268Z,20.47
2017-12-16T17:11:04.561Z,15.70
2017-12-16T17:13:31.061Z,15.73
2017-12-16T17:15:57.564Z,18.33
2017-12-16T17:18:24.517Z,19.97
2017-12-16T17:20:50.932Z,17.83
2017-12-16T17:23:17.325Z,19.70
2017-12-16T17:25:43.756Z,15.43
2017-12-16T17:28:10.218Z,17.33
2017-12-16T17:30:36.646Z,17.97
2017-12-16T17:33:03.097Z,20.20
2017-12-16T17:35:29.539Z,20.63
2017-12-16T17:37:55.978Z,20.60
2017-12-16T17:40:22.445Z,22.63
2017-12-16T17:42:48.831Z,16.77
2017-12-16T17:45:15.206Z,19.77
2017-12-16T17:47:41.612Z,21.83
2017-12-16T17:50:08.054Z,18.33
2017-12-16T17:52:34.434Z,18.37
2017-12-16T17:55:00.865Z,24.50
2017-12-16T17:57:27.273Z,24.53
2017-12-16T17:59:53.658Z,18.30
2017-12-16T18:02:20.100Z,15.33
2017-12-16T18:04:46.526Z,18.77
2017-12-16T18:07:12.993Z,21.37
2017-12-16T18:09:39.418Z,17.10
2017-12-16T18:12:05.801Z,19.60
2017-12-16T18:14:32.234Z,16.57
2017-12-16T18:16:58.641Z,16.70
2017-12-16T18:19:25.047Z,18.60
2017-12-16T18:21:51.476Z,14.33
2017-12-16T18:24:17.898Z,21.23
2017-12-16T18:26:44.328Z,18.00
2017-12-16T18:29:11.212Z,20.77
2017-12-16T18:31:37.918Z,22.53
2017-12-16T18:34:05.780Z,23.23
2017-12-16T18:36:33.202Z,19.43
2017-12-16T18:39:01.862Z,14.70
2017-12-16T18:41:28.849Z,13.77
2017-12-16T18:43:56.264Z,13.00
2017-12-16T18:46:22.719Z,17.37
2017-12-16T18:48:50.435Z,14.73
2017-12-16T18:51:18.017Z,11.50
2017-12-16T18:53:44.765Z,14.17
2017-12-16T18:56:11.173Z,15.53
2017-12-16T18:58:37.565Z,15.07
2017-12-16T19:01:04.201Z,12.10
2017-12-16T19:03:30.609Z,13.40
2017-12-16T19:05:57.009Z,14.47
2017-12-16T19:08:23.554Z,10.70
2017-12-16T19:10:50.029Z,11.00
2017-12-16T19:13:16.417Z,21.53
2017-12-16T19:15:42.890Z,23.63
2017-12-16T19:18:09.279Z,21.83
2017-12-16T19:20:35.643Z,18.77
2017-12-16T19:23:02.121Z,25.40
2017-12-16T19:25:28.527Z,21.33
2017-12-16T19:27:54.933Z,19.63
2017-12-16T19:30:21.365Z,20.87
2017-12-16T19:32:47.774Z,20.10
2017-12-16T19:35:14.186Z,16.50
2017-12-16T19:37:40.642Z,17.47
2017-12-16T19:40:07.056Z,17.77
2017-12-16T19:42:34.064Z,20.47
2017-12-16T19:45:00.771Z,18.93
2017-12-16T19:47:27.248Z,18.87
2017-12-16T19:49:53.625Z,17.87
2017-12-16T19:52:20.017Z,15.23
2017-12-16T19:54:46.454Z,14.77
2017-12-16T19:57:12.861Z,14.63
2017-12-16T19:59:39.317Z,14.03
2017-12-16T20:02:05.697Z,14.97
2017-12-16T20:04:32.289Z,15.20
2017-12-16T20:06:58.913Z,14.23
2017-12-16T20:09:25.273Z,13.97
2017-12-16T20:11:51.642Z,13.97
2017-12-16T20:14:18.087Z,16.57
2017-12-16T20:16:44.457Z,13.80
2017-12-16T20:19:10.877Z,16.00
2017-12-16T20:21:37.285Z,15.03
2017-12-16T20:24:03.668Z,17.57
2017-12-16T20:26:30.049Z,13.50
2017-12-16T20:28:56.460Z,14.37
2017-12-16T20:31:22.845Z,9.13
2017-12-16T20:33:49.222Z,11.40
2017-12-16T20:36:15.702Z,12.53
2017-12-16T20:38:42.054Z,9.53
2017-12-16T20:41:08.549Z,11.30
2017-12-16T20:43:35.083Z,21.03
2017-12-16T20:46:01.549Z,15.70
2017-12-16T20:48:28.006Z,14.30
2017-12-16T20:50:54.458Z,12.23
2017-12-16T20:53:20.998Z,10.90
2017-12-16T20:55:47.385Z,10.50
2017-12-16T20:58:13.893Z,16.00
2017-12-16T21:00:40.424Z,9.83
2017-12-16T21:03:06.834Z,11.47
2017-12-16T21:05:33.538Z,13.83
2017-12-16T21:07:59.955Z,12.10
2017-12-16T21:10:26.330Z,14.73
2017-12-16T21:12:52.706Z,15.93
2017-12-16T21:15:19.059Z,10.93
2017-12-16T21:17:46.012Z,13.17
2017-12-16T21:20:12.625Z,11.47
2017-12-16T21:22:39.023Z,10.67
2017-12-16T21:25:05.393Z,11.60
2017-12-16T21:27:31.772Z,13.87
2017-12-16T21:29:58.130Z,11.17
2017-12-16T21:32:24.470Z,13.53
2017-12-16T21:35:00.614Z,10.57
2017-12-16T21:37:28.894Z,9.43
2017-12-16T21:39:55.294Z,14.03
2017-12-16T21:42:21.712Z,11.20
2017-12-16T21:44:48.127Z,12.80
2017-12-16T21:47:14.589Z,10.03
2017-12-16T21:49:41.018Z,12.40
2017-12-16T21:52:07.437Z,11.23
2017-12-16T21:54:33.813Z,8.33
2017-12-16T21:57:00.205Z,9.77
2017-12-16T21:59:26.554Z,9.03
2017-12-16T22:01:52.970Z,6.20
2017-12-16T22:04:19.351Z,12.57
2017-12-16T22:06:45.707Z,9.63
2017-12-16T22:09:12.112Z,8.30
2017-12-16T22:11:38.517Z,12.03
2017-12-16T22:14:04.878Z,12.07
2017-12-16T22:16:31.222Z,8.93
2017-12-16T22:18:57.610Z,9.97
2017-12-16T22:21:24.096Z,10.13
2017-12-16T22:23:50.462Z,8.33
2017-12-16T22:26:16.837Z,9.93
2017-12-16T22:28:43.189Z,9.83
2017-12-16T22:31:09.529Z,7.43
2017-12-16T22:33:35.909Z,11.97
2017-12-16T22:36:02.270Z,6.63
2017-12-16T22:38:28.670Z,6.37
2017-12-16T22:40:55.134Z,7.77
2017-12-16T22:43:21.533Z,6.87
2017-12-16T22:45:47.921Z,8.83
2017-12-16T22:48:14.357Z,9.63
2017-12-16T22:50:40.757Z,9.03
2017-12-16T22:53:07.141Z,8.03
2017-12-16T22:55:33.584Z,10.07
2017-12-16T22:58:00.016Z,6.53
2017-12-16T23:00:26.389Z,7.93
2017-12-16T23:02:52.870Z,9.03
2017-12-16T23:05:19.261Z,8.13
2017-12-16T23:07:45.720Z,8.43
2017-12-16T23:10:12.168Z,7.60
2017-12-16T23:12:38.605Z,9.90
2017-12-16T23:15:05.178Z,7.20
2017-12-16T23:17:31.680Z,5.27
2017-12-16T23:19:58.127Z,9.67
2017-12-16T23:22:24.546Z,8.53
2017-12-16T23:24:51.025Z,7.87
2017-12-16T23:27:17.510Z,9.70
2017-12-16T23:29:43.941Z,9.30
2017-12-16T23:32:10.432Z,11.93
2017-12-16T23:34:36.891Z,9.53
2017-12-16T23:37:03.321Z,12.40
2017-12-16T23:39:29.793Z,7.67
2017-12-16T23:41:56.225Z,9.87
2017-12-16T23:44:22.662Z,16.93
2017-12-16T23:46:49.137Z,10.20
2017-12-16T23:49:15.565Z,7.77
2017-12-16T23:51:41.997Z,6.57
2017-12-16T23:54:08.473Z,8.53
2017-12-16T23:56:34.919Z,5.87
2017-12-16T23:59:01.402Z,7.50
